sensor_id;sensor_type;location;lat;lon;timestamp;pressure;altitude;pressure_sealevel;temperature;humidity
73671;BME280;61968;48.178;11.566;2023-04-03T00:01:17;96290.00;;;4.14;43.05
73671;BME280;61968;48.178;11.566;2023-04-03T00:03:43;96295.44;;;4.27;42.71
73671;BME280;61968;48.178;11.566;2023-04-03T00:06:11;96288.22;;;4.29;42.28
73671;BME280;61968;48.178;11.566;2023-04-03T00:08:40;96291.00;;;4.28;42.56
73671;BME280;61968;48.178;11.566;2023-04-03T00:11:06;96291.47;;;4.31;42.76
73671;BME280;61968;48.178;11.566;2023-04-03T00:13:33;96294.78;;;4.25;42.43
73671;BME280;61968;48.178;11.566;2023-04-03T00:16:00;96288.94;;;4.23;42.49
73671;BME280;61968;48.178;11.566;2023-04-03T00:18:27;96291.19;;;4.26;42.27
73671;BME280;61968;48.178;11.566;2023-04-03T00:20:53;96290.50;;;4.32;42.08
73671;BME280;61968;48.178;11.566;2023-04-03T00:23:19;96295.97;;;4.22;42.12
73671;BME280;61968;48.178;11.566;2023-04-03T00:25:47;96295.63;;;4.26;42.04
73671;BME280;61968;48.178;11.566;2023-04-03T00:28:14;96291.66;;;4.07;42.43
73671;BME280;61968;48.178;11.566;2023-04-03T00:30:40;96289.06;;;4.07;42.59
73671;BME280;61968;48.178;11.566;2023-04-03T00:33:07;96293.72;;;3.96;42.82
73671;BME280;61968;48.178;11.566;2023-04-03T00:35:34;96297.59;;;4.00;42.82
73671;BME280;61968;48.178;11.566;2023-04-03T00:38:00;96293.06;;;3.94;43.40
73671;BME280;61968;48.178;11.566;2023-04-03T00:40:27;96299.88;;;4.04;42.82
73671;BME280;61968;48.178;11.566;2023-04-03T00:42:57;96298.25;;;4.03;42.56
73671;BME280;61968;48.178;11.566;2023-04-03T00:45:31;96287.44;;;4.06;42.76
73671;BME280;61968;48.178;11.566;2023-04-03T00:47:59;96297.25;;;4.04;42.79
73671;BME280;61968;48.178;11.566;2023-04-03T00:50:28;96290.50;;;4.09;42.75
73671;BME280;61968;48.178;11.566;2023-04-03T00:52:55;96291.97;;;4.12;42.62
73671;BME280;61968;48.178;11.566;2023-04-03T00:55:22;96292.38;;;4.00;42.22
73671;BME280;61968;48.178;11.566;2023-04-03T00:57:49;96294.63;;;4.04;42.99
73671;BME280;61968;48.178;11.566;2023-04-03T01:00:19;96291.78;;;3.90;43.09
73671;BME280;61968;48.178;11.566;2023-04-03T01:02:47;96291.41;;;4.02;42.49
73671;BME280;61968;48.178;11.566;2023-04-03T01:05:15;96288.84;;;3.93;42.90
73671;BME280;61968;48.178;11.566;2023-04-03T01:07:42;96295.56;;;3.88;43.04
73671;BME280;61968;48.178;11.566;2023-04-03T01:10:11;96295.34;;;3.97;42.81
73671;BME280;61968;48.178;11.566;2023-04-03T01:12:41;96292.66;;;4.06;42.40
73671;BME280;61968;48.178;11.566;2023-04-03T01:15:11;96294.72;;;3.95;42.86
73671;BME280;61968;48.178;11.566;2023-04-03T01:17:40;96294.72;;;3.95;43.00
73671;BME280;61968;48.178;11.566;2023-04-03T01:23:19;96294.66;;;3.81;43.22
73671;BME280;61968;48.178;11.566;2023-04-03T01:25:50;96301.97;;;3.85;43.27
73671;BME280;61968;48.178;11.566;2023-04-03T01:28:20;96300.00;;;3.87;42.98
73671;BME280;61968;48.178;11.566;2023-04-03T01:30:50;96301.72;;;3.95;43.04
73671;BME280;61968;48.178;11.566;2023-04-03T01:33:19;96303.19;;;3.97;42.74
73671;BME280;61968;48.178;11.566;2023-04-03T01:35:45;96300.69;;;4.04;42.94
73671;BME280;61968;48.178;11.566;2023-04-03T01:38:11;96307.16;;;3.93;43.14
73671;BME280;61968;48.178;11.566;2023-04-03T01:40:38;96303.88;;;3.91;43.24
73671;BME280;61968;48.178;11.566;2023-04-03T01:43:04;96296.38;;;3.88;43.13
73671;BME280;61968;48.178;11.566;2023-04-03T01:45:31;96303.06;;;3.91;42.85
73671;BME280;61968;48.178;11.566;2023-04-03T01:47:57;96305.19;;;3.95;42.64
73671;BME280;61968;48.178;11.566;2023-04-03T01:50:25;96305.81;;;3.97;42.96
73671;BME280;61968;48.178;11.566;2023-04-03T01:52:51;96298.28;;;3.94;42.84
73671;BME280;61968;48.178;11.566;2023-04-03T01:55:18;96307.09;;;4.02;42.42
73671;BME280;61968;48.178;11.566;2023-04-03T01:57:44;96295.63;;;4.03;42.59
73671;BME280;61968;48.178;11.566;2023-04-03T02:00:11;96297.09;;;4.05;42.54
73671;BME280;61968;48.178;11.566;2023-04-03T02:02:38;96298.19;;;4.11;42.15
73671;BME280;61968;48.178;11.566;2023-04-03T02:05:06;96292.47;;;4.07;42.43
73671;BME280;61968;48.178;11.566;2023-04-03T02:07:34;96295.44;;;4.04;42.38
73671;BME280;61968;48.178;11.566;2023-04-03T02:10:00;96301.03;;;4.01;42.36
73671;BME280;61968;48.178;11.566;2023-04-03T02:12:27;96297.50;;;3.94;42.69
73671;BME280;61968;48.178;11.566;2023-04-03T02:14:53;96299.00;;;3.88;42.57
73671;BME280;61968;48.178;11.566;2023-04-03T02:17:20;96302.91;;;3.92;42.75
73671;BME280;61968;48.178;11.566;2023-04-03T02:19:46;96299.09;;;3.95;42.38
73671;BME280;61968;48.178;11.566;2023-04-03T02:22:13;96294.47;;;4.05;42.41
73671;BME280;61968;48.178;11.566;2023-04-03T02:24:41;96298.53;;;4.08;42.36
73671;BME280;61968;48.178;11.566;2023-04-03T02:27:07;96290.75;;;3.99;41.99
73671;BME280;61968;48.178;11.566;2023-04-03T02:29:34;96294.88;;;3.94;42.31
73671;BME280;61968;48.178;11.566;2023-04-03T02:32:00;96282.56;;;4.03;42.37
73671;BME280;61968;48.178;11.566;2023-04-03T02:34:27;96288.13;;;3.99;42.09
73671;BME280;61968;48.178;11.566;2023-04-03T02:36:53;96291.22;;;4.03;41.93
73671;BME280;61968;48.178;11.566;2023-04-03T02:39:19;96287.69;;;3.96;41.74
73671;BME280;61968;48.178;11.566;2023-04-03T02:41:47;96291.97;;;3.89;42.06
73671;BME280;61968;48.178;11.566;2023-04-03T02:44:14;96292.59;;;3.91;41.98
73671;BME280;61968;48.178;11.566;2023-04-03T02:46:40;96292.56;;;3.68;41.98
73671;BME280;61968;48.178;11.566;2023-04-03T02:49:07;96297.13;;;3.74;42.19
73671;BME280;61968;48.178;11.566;2023-04-03T02:51:33;96296.25;;;3.82;42.60
73671;BME280;61968;48.178;11.566;2023-04-03T02:53:59;96294.66;;;3.81;41.88
73671;BME280;61968;48.178;11.566;2023-04-03T02:56:26;96293.66;;;3.82;42.14
73671;BME280;61968;48.178;11.566;2023-04-03T02:58:54;96292.66;;;3.83;42.20
73671;BME280;61968;48.178;11.566;2023-04-03T03:01:20;96292.03;;;3.81;41.94
73671;BME280;61968;48.178;11.566;2023-04-03T03:03:46;96292.66;;;3.83;42.32
73671;BME280;61968;48.178;11.566;2023-04-03T03:06:15;96294.88;;;3.94;42.02
73671;BME280;61968;48.178;11.566;2023-04-03T03:08:42;96295.91;;;3.85;41.63
73671;BME280;61968;48.178;11.566;2023-04-03T03:11:09;96292.50;;;3.84;41.93
73671;BME280;61968;48.178;11.566;2023-04-03T03:13:36;96300.50;;;3.83;41.59
73671;BME280;61968;48.178;11.566;2023-04-03T03:16:05;96297.69;;;3.92;41.55
73671;BME280;61968;48.178;11.566;2023-04-03T03:18:31;96299.28;;;3.93;41.63
73671;BME280;61968;48.178;11.566;2023-04-03T03:20:59;96292.09;;;3.95;41.06
73671;BME280;61968;48.178;11.566;2023-04-03T03:23:28;96291.25;;;3.95;41.07
73671;BME280;61968;48.178;11.566;2023-04-03T03:25:56;96289.63;;;3.94;41.26
73671;BME280;61968;48.178;11.566;2023-04-03T03:28:23;96293.25;;;3.93;41.53
73671;BME280;61968;48.178;11.566;2023-04-03T03:30:50;96292.78;;;3.89;40.81
73671;BME280;61968;48.178;11.566;2023-04-03T03:33:18;96297.03;;;3.90;40.80
73671;BME280;61968;48.178;11.566;2023-04-03T03:35:45;96288.75;;;3.78;40.47
73671;BME280;61968;48.178;11.566;2023-04-03T03:38:11;96291.03;;;3.82;41.11
73671;BME280;61968;48.178;11.566;2023-04-03T03:40:38;96289.19;;;3.90;40.95
73671;BME280;61968;48.178;11.566;2023-04-03T03:43:05;96298.69;;;4.82;53.36
73671;BME280;61968;48.178;11.566;2023-04-03T03:45:31;96299.06;;;6.60;48.98
73671;BME280;61968;48.178;11.566;2023-04-03T03:47:58;96296.72;;;7.48;43.80
73671;BME280;61968;48.178;11.566;2023-04-03T03:50:25;96299.63;;;7.60;42.54
73671;BME280;61968;48.178;11.566;2023-04-03T03:52:52;96292.41;;;7.75;42.58
73671;BME280;61968;48.178;11.566;2023-04-03T03:55:18;96296.69;;;7.89;40.82
73671;BME280;61968;48.178;11.566;2023-04-03T03:57:45;96293.88;;;7.98;40.75
73671;BME280;61968;48.178;11.566;2023-04-03T04:00:12;96292.47;;;8.08;40.54
73671;BME280;61968;48.178;11.566;2023-04-03T04:02:38;96292.06;;;8.05;39.74
73671;BME280;61968;48.178;11.566;2023-04-03T04:05:05;96296.31;;;8.12;39.69
73671;BME280;61968;48.178;11.566;2023-04-03T04:07:32;96287.59;;;8.05;34.94
73671;BME280;61968;48.178;11.566;2023-04-03T04:09:59;96291.34;;;7.21;34.95
73671;BME280;61968;48.178;11.566;2023-04-03T04:12:25;96286.97;;;6.66;34.47
73671;BME280;61968;48.178;11.566;2023-04-03T04:14:52;96296.09;;;6.20;36.04
73671;BME280;61968;48.178;11.566;2023-04-03T04:17:18;96291.34;;;5.88;35.87
73671;BME280;61968;48.178;11.566;2023-04-03T04:19:45;96292.78;;;5.54;36.73
73671;BME280;61968;48.178;11.566;2023-04-03T04:22:11;96298.25;;;5.37;37.71
73671;BME280;61968;48.178;11.566;2023-04-03T04:24:39;96299.81;;;5.17;37.81
73671;BME280;61968;48.178;11.566;2023-04-03T04:27:05;96297.91;;;5.11;38.46
73671;BME280;61968;48.178;11.566;2023-04-03T04:29:32;96296.63;;;5.07;38.07
73671;BME280;61968;48.178;11.566;2023-04-03T04:32:00;96301.34;;;4.97;38.28
73671;BME280;61968;48.178;11.566;2023-04-03T04:34:27;96298.81;;;4.88;38.82
73671;BME280;61968;48.178;11.566;2023-04-03T04:36:53;96299.25;;;4.77;38.50
73671;BME280;61968;48.178;11.566;2023-04-03T04:39:20;96300.22;;;4.76;39.00
73671;BME280;61968;48.178;11.566;2023-04-03T04:41:48;96307.69;;;4.64;38.67
73671;BME280;61968;48.178;11.566;2023-04-03T04:44:14;96300.38;;;4.60;38.95
73671;BME280;61968;48.178;11.566;2023-04-03T04:46:41;96307.31;;;4.53;38.74
73671;BME280;61968;48.178;11.566;2023-04-03T04:49:07;96308.66;;;4.49;39.10
73671;BME280;61968;48.178;11.566;2023-04-03T04:51:34;96313.25;;;4.46;39.28
73671;BME280;61968;48.178;11.566;2023-04-03T04:54:00;96301.53;;;4.42;39.40
73671;BME280;61968;48.178;11.566;2023-04-03T04:56:27;96310.72;;;4.38;39.25
73671;BME280;61968;48.178;11.566;2023-04-03T04:58:54;96309.38;;;4.42;39.53
73671;BME280;61968;48.178;11.566;2023-04-03T05:01:21;96309.38;;;4.42;39.32
73671;BME280;61968;48.178;11.566;2023-04-03T05:03:47;96315.22;;;4.30;39.74
73671;BME280;61968;48.178;11.566;2023-04-03T05:06:14;96318.84;;;4.29;39.60
73671;BME280;61968;48.178;11.566;2023-04-03T05:08:40;96321.47;;;4.29;40.15
73671;BME280;61968;48.178;11.566;2023-04-03T05:11:07;96316.84;;;4.31;40.11
73671;BME280;61968;48.178;11.566;2023-04-03T05:13:33;96314.75;;;4.26;39.93
73671;BME280;61968;48.178;11.566;2023-04-03T05:16:01;96316.09;;;4.22;40.52
73671;BME280;61968;48.178;11.566;2023-04-03T05:18:28;96315.94;;;4.23;39.67
73671;BME280;61968;48.178;11.566;2023-04-03T05:20:54;96322.06;;;4.31;40.27
73671;BME280;61968;48.178;11.566;2023-04-03T05:23:20;96329.66;;;4.26;39.81
73671;BME280;61968;48.178;11.566;2023-04-03T05:25:47;96324.28;;;4.19;39.56
73671;BME280;61968;48.178;11.566;2023-04-03T05:28:14;96325.28;;;4.18;39.84
73671;BME280;61968;48.178;11.566;2023-04-03T05:30:41;96325.28;;;4.18;39.57
73671;BME280;61968;48.178;11.566;2023-04-03T05:33:08;96325.84;;;4.28;39.84
73671;BME280;61968;48.178;11.566;2023-04-03T05:35:35;96322.63;;;4.26;39.51
73671;BME280;61968;48.178;11.566;2023-04-03T05:38:04;96329.06;;;4.15;39.83
73671;BME280;61968;48.178;11.566;2023-04-03T05:40:31;96326.16;;;4.10;39.98
73671;BME280;61968;48.178;11.566;2023-04-03T05:42:57;96320.28;;;4.08;39.92
73671;BME280;61968;48.178;11.566;2023-04-03T05:45:24;96324.53;;;4.09;39.78
73671;BME280;61968;48.178;11.566;2023-04-03T05:47:50;96324.41;;;4.03;39.71
73671;BME280;61968;48.178;11.566;2023-04-03T05:50:18;96324.88;;;4.06;39.61
73671;BME280;61968;48.178;11.566;2023-04-03T05:52:47;96325.19;;;4.11;39.63
73671;BME280;61968;48.178;11.566;2023-04-03T05:55:14;96325.00;;;4.13;39.69
73671;BME280;61968;48.178;11.566;2023-04-03T05:57:41;96329.34;;;3.97;39.75
73671;BME280;61968;48.178;11.566;2023-04-03T06:00:12;96334.94;;;4.17;39.31
73671;BME280;61968;48.178;11.566;2023-04-03T06:02:39;96333.38;;;4.08;39.74
73671;BME280;61968;48.178;11.566;2023-04-03T06:05:08;96331.38;;;4.10;39.98
73671;BME280;61968;48.178;11.566;2023-04-03T06:07:36;96337.81;;;4.08;39.52
73671;BME280;61968;48.178;11.566;2023-04-03T06:10:03;96330.13;;;4.06;39.72
73671;BME280;61968;48.178;11.566;2023-04-03T06:12:30;96334.19;;;4.09;40.32
73671;BME280;61968;48.178;11.566;2023-04-03T06:14:57;96335.19;;;4.08;39.82
73671;BME280;61968;48.178;11.566;2023-04-03T06:17:23;96334.69;;;4.04;39.87
73671;BME280;61968;48.178;11.566;2023-04-03T06:19:50;96343.03;;;4.08;40.02
73671;BME280;61968;48.178;11.566;2023-04-03T06:22:17;96343.31;;;4.13;40.04
73671;BME280;61968;48.178;11.566;2023-04-03T06:24:44;96340.56;;;4.06;39.54
73671;BME280;61968;48.178;11.566;2023-04-03T06:27:11;96347.56;;;4.14;39.77
73671;BME280;61968;48.178;11.566;2023-04-03T06:29:38;96343.50;;;4.11;39.75
73671;BME280;61968;48.178;11.566;2023-04-03T06:32:05;96345.94;;;4.13;39.62
73671;BME280;61968;48.178;11.566;2023-04-03T06:34:32;96348.28;;;4.08;39.38
73671;BME280;61968;48.178;11.566;2023-04-03T06:36:58;96349.25;;;4.07;40.11
73671;BME280;61968;48.178;11.566;2023-04-03T06:39:25;96345.34;;;4.03;39.66
73671;BME280;61968;48.178;11.566;2023-04-03T06:41:53;96344.34;;;4.04;39.88
73671;BME280;61968;48.178;11.566;2023-04-03T06:44:20;96349.69;;;4.10;39.88
73671;BME280;61968;48.178;11.566;2023-04-03T06:46:46;96347.38;;;4.15;40.42
73671;BME280;61968;48.178;11.566;2023-04-03T06:49:13;96355.66;;;4.27;39.38
73671;BME280;61968;48.178;11.566;2023-04-03T06:51:40;96352.47;;;4.17;39.60
73671;BME280;61968;48.178;11.566;2023-04-03T06:54:06;96350.41;;;4.27;38.54
73671;BME280;61968;48.178;11.566;2023-04-03T06:56:33;96354.38;;;4.23;39.20
73671;BME280;61968;48.178;11.566;2023-04-03T06:59:01;96351.97;;;4.13;39.79
73671;BME280;61968;48.178;11.566;2023-04-03T07:01:29;96352.47;;;4.17;39.78
73671;BME280;61968;48.178;11.566;2023-04-03T07:03:56;96354.78;;;4.12;39.31
73671;BME280;61968;48.178;11.566;2023-04-03T07:06:23;96359.81;;;4.13;38.94
73671;BME280;61968;48.178;11.566;2023-04-03T07:08:52;96357.69;;;4.17;38.63
73671;BME280;61968;48.178;11.566;2023-04-03T07:11:18;96365.47;;;4.25;39.48
73671;BME280;61968;48.178;11.566;2023-04-03T07:13:45;96363.44;;;4.35;38.36
73671;BME280;61968;48.178;11.566;2023-04-03T07:16:13;96368.38;;;4.30;38.95
73671;BME280;61968;48.178;11.566;2023-04-03T07:18:40;96369.13;;;4.16;38.73
73671;BME280;61968;48.178;11.566;2023-04-03T07:21:07;96372.34;;;4.26;38.72
73671;BME280;61968;48.178;11.566;2023-04-03T07:23:33;96372.56;;;4.39;38.96
73671;BME280;61968;48.178;11.566;2023-04-03T07:26:00;96373.28;;;4.33;38.79
73671;BME280;61968;48.178;11.566;2023-04-03T07:28:26;96372.13;;;4.36;38.80
73671;BME280;61968;48.178;11.566;2023-04-03T07:30:54;96380.00;;;4.28;39.35
73671;BME280;61968;48.178;11.566;2023-04-03T07:33:26;96382.75;;;4.34;39.18
73671;BME280;61968;48.178;11.566;2023-04-03T07:35:53;96383.59;;;4.35;39.42
73671;BME280;61968;48.178;11.566;2023-04-03T07:38:20;96381.53;;;4.22;39.08
73671;BME280;61968;48.178;11.566;2023-04-03T07:40:46;96391.03;;;4.23;39.53
73671;BME280;61968;48.178;11.566;2023-04-03T07:43:13;96385.09;;;4.29;39.00
73671;BME280;61968;48.178;11.566;2023-04-03T07:45:40;96397.91;;;4.16;39.12
73671;BME280;61968;48.178;11.566;2023-04-03T07:48:08;96393.34;;;4.18;38.99
73671;BME280;61968;48.178;11.566;2023-04-03T07:50:37;96401.75;;;4.28;38.92
73671;BME280;61968;48.178;11.566;2023-04-03T07:53:05;96398.19;;;4.29;38.59
73671;BME280;61968;48.178;11.566;2023-04-03T07:55:33;96405.50;;;4.34;38.80
73671;BME280;61968;48.178;11.566;2023-04-03T07:58:00;96403.06;;;4.32;38.89
73671;BME280;61968;48.178;11.566;2023-04-03T08:00:26;96404.56;;;4.27;38.63
73671;BME280;61968;48.178;11.566;2023-04-03T08:02:53;96406.06;;;4.21;39.29
73671;BME280;61968;48.178;11.566;2023-04-03T08:05:20;96404.91;;;4.23;39.36
73671;BME280;61968;48.178;11.566;2023-04-03T08:07:48;96406.31;;;4.34;39.19
73671;BME280;61968;48.178;11.566;2023-04-03T08:10:15;96404.63;;;4.41;39.15
73671;BME280;61968;48.178;11.566;2023-04-03T08:12:41;96412.84;;;4.38;38.77
73671;BME280;61968;48.178;11.566;2023-04-03T08:15:08;96409.91;;;4.33;39.26
73671;BME280;61968;48.178;11.566;2023-04-03T08:17:35;96411.88;;;4.31;39.23
73671;BME280;61968;48.178;11.566;2023-04-03T08:20:02;96409.91;;;4.33;39.61
73671;BME280;61968;48.178;11.566;2023-04-03T08:22:29;96414.34;;;4.33;39.19
73671;BME280;61968;48.178;11.566;2023-04-03T08:24:57;96412.59;;;4.25;38.85
73671;BME280;61968;48.178;11.566;2023-04-03T08:27:23;96409.69;;;4.20;39.12
73671;BME280;61968;48.178;11.566;2023-04-03T08:29:50;96412.72;;;4.32;38.89
73671;BME280;61968;48.178;11.566;2023-04-03T08:32:17;96411.09;;;4.31;39.01
73671;BME280;61968;48.178;11.566;2023-04-03T08:34:44;96411.72;;;4.33;38.63
73671;BME280;61968;48.178;11.566;2023-04-03T08:37:11;96417.09;;;4.39;38.60
73671;BME280;61968;48.178;11.566;2023-04-03T08:39:38;96413.94;;;4.44;38.55
73671;BME280;61968;48.178;11.566;2023-04-03T08:42:15;96415.13;;;4.41;38.41
73671;BME280;61968;48.178;11.566;2023-04-03T08:44:47;96417.66;;;4.50;38.43
73671;BME280;61968;48.178;11.566;2023-04-03T08:47:23;96410.50;;;4.43;38.32
73671;BME280;61968;48.178;11.566;2023-04-03T08:49:53;96416.78;;;4.34;38.80
73671;BME280;61968;48.178;11.566;2023-04-03T08:52:26;96420.34;;;4.41;38.76
73671;BME280;61968;48.178;11.566;2023-04-03T08:54:56;96418.31;;;4.52;38.36
73671;BME280;61968;48.178;11.566;2023-04-03T08:57:29;96424.44;;;4.44;38.09
73671;BME280;61968;48.178;11.566;2023-04-03T08:59:58;96419.00;;;4.45;38.67
73671;BME280;61968;48.178;11.566;2023-04-03T09:02:30;96422.28;;;4.48;38.79
73671;BME280;61968;48.178;11.566;2023-04-03T09:04:59;96426.84;;;4.45;38.77
73671;BME280;61968;48.178;11.566;2023-04-03T09:07:28;96426.06;;;4.45;38.52
73671;BME280;61968;48.178;11.566;2023-04-03T09:09:59;96426.91;;;4.37;39.85
73671;BME280;61968;48.178;11.566;2023-04-03T09:12:33;96429.59;;;4.29;39.45
73671;BME280;61968;48.178;11.566;2023-04-03T09:15:09;96421.63;;;4.45;38.56
73671;BME280;61968;48.178;11.566;2023-04-03T09:17:41;96422.53;;;4.53;38.97
73671;BME280;61968;48.178;11.566;2023-04-03T09:20:19;96422.03;;;4.57;38.31
73671;BME280;61968;48.178;11.566;2023-04-03T09:22:50;96418.81;;;4.70;38.40
73671;BME280;61968;48.178;11.566;2023-04-03T09:25:20;96417.84;;;4.71;38.03
73671;BME280;61968;48.178;11.566;2023-04-03T09:27:49;96423.09;;;4.71;38.71
73671;BME280;61968;48.178;11.566;2023-04-03T09:30:19;96418.34;;;4.66;37.84
73671;BME280;61968;48.178;11.566;2023-04-03T09:32:47;96418.31;;;4.75;38.34
73671;BME280;61968;48.178;11.566;2023-04-03T09:35:19;96418.41;;;4.58;38.50
73671;BME280;61968;48.178;11.566;2023-04-03T09:37:48;96419.63;;;4.70;38.23
73671;BME280;61968;48.178;11.566;2023-04-03T09:40:34;96412.19;;;4.59;38.25
73671;BME280;61968;48.178;11.566;2023-04-03T09:43:20;96418.59;;;4.57;38.01
73671;BME280;61968;48.178;11.566;2023-04-03T09:45:49;96413.06;;;4.52;38.15
73671;BME280;61968;48.178;11.566;2023-04-03T09:48:18;96413.31;;;4.65;38.04
73671;BME280;61968;48.178;11.566;2023-04-03T09:50:54;96410.50;;;4.66;37.89
73671;BME280;61968;48.178;11.566;2023-04-03T09:53:29;96407.22;;;4.64;38.18
73671;BME280;61968;48.178;11.566;2023-04-03T09:55:56;96413.56;;;4.70;38.18
73671;BME280;61968;48.178;11.566;2023-04-03T09:58:26;96417.41;;;4.82;37.41
73671;BME280;61968;48.178;11.566;2023-04-03T10:00:55;96408.22;;;4.63;37.37
73671;BME280;61968;48.178;11.566;2023-04-03T10:03:24;96411.72;;;4.56;37.40
73671;BME280;61968;48.178;11.566;2023-04-03T10:05:51;96415.97;;;4.57;37.73
73671;BME280;61968;48.178;11.566;2023-04-03T10:08:22;96422.50;;;4.61;38.34
73671;BME280;61968;48.178;11.566;2023-04-03T10:11:10;96419.00;;;4.45;38.31
73671;BME280;61968;48.178;11.566;2023-04-03T10:13:50;96420.28;;;4.50;38.68
73671;BME280;61968;48.178;11.566;2023-04-03T10:16:18;96417.78;;;4.33;38.52
73671;BME280;61968;48.178;11.566;2023-04-03T10:18:51;96416.97;;;4.33;38.72
73671;BME280;61968;48.178;11.566;2023-04-03T10:21:29;96419.25;;;4.36;38.74
73671;BME280;61968;48.178;11.566;2023-04-03T10:24:07;96413.75;;;4.45;38.54
73671;BME280;61968;48.178;11.566;2023-04-03T10:26:41;96416.28;;;4.39;38.86
73671;BME280;61968;48.178;11.566;2023-04-03T10:29:20;96411.50;;;4.42;38.42
73671;BME280;61968;48.178;11.566;2023-04-03T10:31:59;96412.59;;;4.48;38.47
73671;BME280;61968;48.178;11.566;2023-04-03T10:34:29;96419.88;;;4.61;37.25
73671;BME280;61968;48.178;11.566;2023-04-03T10:37:02;96416.56;;;4.44;37.40
73671;BME280;61968;48.178;11.566;2023-04-03T10:39:35;96413.66;;;4.39;37.68
73671;BME280;61968;48.178;11.566;2023-04-03T10:42:09;96417.38;;;4.44;37.65
73671;BME280;61968;48.178;11.566;2023-04-03T10:44:53;96421.09;;;4.50;37.04
73671;BME280;61968;48.178;11.566;2023-04-03T10:47:24;96428.78;;;4.52;36.91
73671;BME280;61968;48.178;11.566;2023-04-03T10:49:57;96420.56;;;4.55;36.92
73671;BME280;61968;48.178;11.566;2023-04-03T10:52:33;96424.44;;;4.44;36.67
73671;BME280;61968;48.178;11.566;2023-04-03T10:55:09;96422.78;;;4.43;36.64
73671;BME280;61968;48.178;11.566;2023-04-03T10:57:40;96417.38;;;4.44;36.60
73671;BME280;61968;48.178;11.566;2023-04-03T11:00:16;96420.28;;;4.50;36.81
73671;BME280;61968;48.178;11.566;2023-04-03T11:02:48;96416.72;;;4.42;37.74
73671;BME280;61968;48.178;11.566;2023-04-03T11:05:18;96417.34;;;4.21;37.80
73671;BME280;61968;48.178;11.566;2023-04-03T11:07:51;96413.88;;;4.29;37.77
73671;BME280;61968;48.178;11.566;2023-04-03T11:10:23;96417.09;;;4.39;38.01
73671;BME280;61968;48.178;11.566;2023-04-03T11:12:54;96418.44;;;4.35;37.81
73671;BME280;61968;48.178;11.566;2023-04-03T11:15:29;96414.59;;;4.23;38.16
73671;BME280;61968;48.178;11.566;2023-04-03T11:18:01;96408.81;;;4.28;37.66
73671;BME280;61968;48.178;11.566;2023-04-03T11:20:31;96415.13;;;4.10;38.69
73671;BME280;61968;48.178;11.566;2023-04-03T11:23:02;96406.78;;;4.15;38.25
73671;BME280;61968;48.178;11.566;2023-04-03T11:25:31;96406.88;;;4.21;38.61
73671;BME280;61968;48.178;11.566;2023-04-03T11:28:00;96408.66;;;4.29;38.69
73671;BME280;61968;48.178;11.566;2023-04-03T11:30:34;96402.13;;;4.25;38.44
73671;BME280;61968;48.178;11.566;2023-04-03T11:33:24;96402.06;;;4.33;37.77
73671;BME280;61968;48.178;11.566;2023-04-03T11:35:57;96403.63;;;4.42;37.66
73671;BME280;61968;48.178;11.566;2023-04-03T11:38:29;96397.91;;;4.47;37.30
73671;BME280;61968;48.178;11.566;2023-04-03T11:41:00;96396.44;;;4.44;37.76
73671;BME280;61968;48.178;11.566;2023-04-03T11:43:28;96394.31;;;4.63;36.71
73671;BME280;61968;48.178;11.566;2023-04-03T11:45:58;96398.91;;;4.61;36.02
73671;BME280;61968;48.178;11.566;2023-04-03T11:48:45;96390.91;;;4.62;35.02
73671;BME280;61968;48.178;11.566;2023-04-03T11:51:44;96386.47;;;4.63;34.05
73671;BME280;61968;48.178;11.566;2023-04-03T11:54:44;96393.72;;;4.76;33.52
73671;BME280;61968;48.178;11.566;2023-04-03T11:57:46;96387.97;;;4.57;33.11
73671;BME280;61968;48.178;11.566;2023-04-03T12:00:48;96377.72;;;4.70;33.86
73671;BME280;61968;48.178;11.566;2023-04-03T12:12:33;96372.56;;;5.00;31.91
73671;BME280;61968;48.178;11.566;2023-04-03T12:15:26;96365.50;;;5.01;31.32
73671;BME280;61968;48.178;11.566;2023-04-03T12:17:53;96364.53;;;5.17;31.22
73671;BME280;61968;48.178;11.566;2023-04-03T12:20:56;96357.94;;;5.21;32.48
73671;BME280;61968;48.178;11.566;2023-04-03T12:23:29;96362.25;;;5.28;31.26
73671;BME280;61968;48.178;11.566;2023-04-03T12:26:01;96362.97;;;5.37;30.51
73671;BME280;61968;48.178;11.566;2023-04-03T12:28:35;96362.91;;;5.30;29.89
73671;BME280;61968;48.178;11.566;2023-04-03T12:31:04;96360.09;;;5.47;30.02
73671;BME280;61968;48.178;11.566;2023-04-03T12:33:42;96353.41;;;5.59;29.90
73671;BME280;61968;48.178;11.566;2023-04-03T12:36:18;96359.22;;;5.76;29.62
73671;BME280;61968;48.178;11.566;2023-04-03T12:39:21;96353.69;;;5.86;29.59
73671;BME280;61968;48.178;11.566;2023-04-03T12:41:56;96350.97;;;5.94;28.98
73671;BME280;61968;48.178;11.566;2023-04-03T12:44:40;96357.44;;;5.98;29.05
73671;BME280;61968;48.178;11.566;2023-04-03T12:47:23;96355.34;;;5.87;28.52
73671;BME280;61968;48.178;11.566;2023-04-03T12:49:50;96343.34;;;5.99;29.54
73671;BME280;61968;48.178;11.566;2023-04-03T12:52:29;96342.97;;;6.02;28.59
73671;BME280;61968;48.178;11.566;2023-04-03T12:54:59;96339.66;;;6.15;29.07
73671;BME280;61968;48.178;11.566;2023-04-03T12:57:29;96340.72;;;6.20;29.31
73671;BME280;61968;48.178;11.566;2023-04-03T12:59:57;96341.53;;;6.21;29.10
73671;BME280;61968;48.178;11.566;2023-04-03T13:02:26;96337.50;;;6.40;28.65
73671;BME280;61968;48.178;11.566;2023-04-03T13:04:56;96332.63;;;6.37;28.58
73671;BME280;61968;48.178;11.566;2023-04-03T13:07:28;96338.88;;;6.36;28.50
73671;BME280;61968;48.178;11.566;2023-04-03T13:09:57;96339.19;;;6.26;27.84
73671;BME280;61968;48.178;11.566;2023-04-03T13:12:25;96331.84;;;6.21;28.41
73671;BME280;61968;48.178;11.566;2023-04-03T13:14:52;96335.47;;;6.20;28.59
73671;BME280;61968;48.178;11.566;2023-04-03T13:17:19;96332.97;;;6.12;28.03
73671;BME280;61968;48.178;11.566;2023-04-03T13:19:46;96336.38;;;5.91;28.45
73671;BME280;61968;48.178;11.566;2023-04-03T13:22:28;96328.94;;;5.95;28.05
73671;BME280;61968;48.178;11.566;2023-04-03T13:24:59;96338.84;;;5.93;28.07